createdAt,value
2022-10-07T00:00:10.477Z,24.55
2022-10-07T00:05:12.115Z,20.55
2022-10-07T00:10:13.765Z,21.00
2022-10-07T00:15:15.527Z,23.48
2022-10-07T00:20:17.167Z,25.55
2022-10-07T00:25:18.779Z,22.33
2022-10-07T00:30:20.388Z,22.92
2022-10-07T00:35:21.969Z,22.27
2022-10-07T00:40:23.621Z,21.88
2022-10-07T00:45:25.173Z,20.70
2022-10-07T00:50:29.578Z,19.90
2022-10-07T00:55:32.450Z,18.48
2022-10-07T01:00:34.133Z,20.98
2022-10-07T01:05:36.111Z,21.88
2022-10-07T01:10:49.610Z,21.85
2022-10-07T01:16:12.883Z,18.17
2022-10-07T01:21:24.216Z,21.98
2022-10-07T01:26:51.001Z,22.80
2022-10-07T01:32:01.351Z,21.00
2022-10-07T01:37:06.967Z,24.83
2022-10-07T01:42:09.106Z,22.65
2022-10-07T01:47:10.740Z,19.92
2022-10-07T01:52:27.190Z,24.05
2022-10-07T01:57:54.000Z,22.65
2022-10-07T02:03:14.417Z,22.30
2022-10-07T02:08:38.476Z,21.23
2022-10-07T02:13:43.472Z,25.00
2022-10-07T02:18:51.856Z,25.83
2022-10-07T02:23:56.149Z,23.73
2022-10-07T02:28:59.593Z,23.98
2022-10-07T02:34:04.437Z,22.30
2022-10-07T02:39:07.331Z,22.58
2022-10-07T02:44:30.270Z,23.15
2022-10-07T02:49:38.137Z,21.30
2022-10-07T02:54:54.779Z,24.02
2022-10-07T03:00:01.116Z,24.42
2022-10-07T03:05:02.742Z,20.55
2022-10-07T03:10:05.204Z,23.55
2022-10-07T03:15:07.171Z,20.38
2022-10-07T03:20:09.714Z,19.55
2022-10-07T03:25:12.749Z,22.83
2022-10-07T03:30:14.363Z,20.30
2022-10-07T03:35:16.777Z,20.80
2022-10-07T03:40:18.862Z,24.02
2022-10-07T03:45:20.842Z,24.80
2022-10-07T03:50:22.943Z,23.05
2022-10-07T03:55:24.544Z,25.65
2022-10-07T04:00:27.089Z,25.92
2022-10-07T04:05:29.212Z,22.60
2022-10-07T04:10:31.518Z,23.65
2022-10-07T04:15:33.484Z,24.73
2022-10-07T04:20:37.932Z,25.33
2022-10-07T04:25:44.264Z,25.55
2022-10-07T04:30:51.165Z,23.00
2022-10-07T04:35:52.757Z,21.52
2022-10-07T04:40:54.296Z,23.23
2022-10-07T04:46:07.993Z,30.50
2022-10-07T04:51:10.216Z,29.38
2022-10-07T04:56:11.785Z,23.65
2022-10-07T05:01:13.524Z,24.75
2022-10-07T05:06:15.129Z,24.80
2022-10-07T05:11:16.696Z,20.40
2022-10-07T05:16:18.340Z,22.52
2022-10-07T05:21:19.907Z,21.27
2022-10-07T05:26:21.469Z,22.95
2022-10-07T05:31:23.078Z,22.85
2022-10-07T05:36:25.210Z,24.80
2022-10-07T05:41:29.047Z,22.75
2022-10-07T05:46:30.876Z,21.20
2022-10-07T05:51:32.403Z,24.20
2022-10-07T05:56:33.966Z,24.52
2022-10-07T06:01:35.594Z,27.20
2022-10-07T06:06:37.216Z,22.40
2022-10-07T06:12:16.900Z,23.45
2022-10-07T06:17:18.441Z,24.42
2022-10-07T06:22:20.018Z,21.23
2022-10-07T06:27:22.348Z,24.40
2022-10-07T06:32:24.219Z,24.83
2022-10-07T06:37:25.818Z,21.70
2022-10-07T06:42:27.466Z,25.38
2022-10-07T06:47:29.053Z,24.52
2022-10-07T06:52:30.455Z,25.08
2022-10-07T06:57:56.024Z,26.98
2022-10-07T07:02:53.252Z,35.60
2022-10-07T07:07:57.090Z,19.80
2022-10-07T07:12:58.535Z,23.60
2022-10-07T07:18:00.263Z,23.98
2022-10-07T07:23:02.302Z,25.20
2022-10-07T07:28:04.525Z,22.98
2022-10-07T07:33:06.307Z,26.05
2022-10-07T07:38:08.524Z,20.60
2022-10-07T07:43:09.928Z,23.02
2022-10-07T07:48:13.030Z,20.83
2022-10-07T07:53:14.443Z,24.00
2022-10-07T07:58:15.839Z,23.30
2022-10-07T08:03:17.248Z,20.35
2022-10-07T08:08:18.650Z,17.58
2022-10-07T08:13:20.072Z,16.73
2022-10-07T08:18:21.729Z,16.52
2022-10-07T08:23:23.177Z,14.82
2022-10-07T08:28:27.448Z,17.45
2022-10-07T08:33:35.858Z,13.52
2022-10-07T08:38:39.539Z,15.43
2022-10-07T08:43:46.494Z,11.95
2022-10-07T08:48:54.967Z,14.63
2022-10-07T08:53:58.996Z,14.18
2022-10-07T08:59:09.578Z,15.07
2022-10-07T09:04:41.545Z,12.68
2022-10-07T09:10:09.206Z,11.32
2022-10-07T09:15:33.980Z,10.25
2022-10-07T09:20:42.146Z,9.15
2022-10-07T09:25:43.841Z,9.33
2022-10-07T09:30:45.343Z,9.38
2022-10-07T09:35:58.086Z,12.02
2022-10-07T09:41:17.818Z,8.82
2022-10-07T09:46:47.810Z,9.63
2022-10-07T09:52:15.694Z,10.05
2022-10-07T09:57:26.083Z,8.73
2022-10-07T10:02:28.240Z,10.95
2022-10-07T10:07:36.229Z,9.13
2022-10-07T10:12:46.434Z,12.65
2022-10-07T10:17:48.306Z,9.77
2022-10-07T10:22:50.684Z,9.98
2022-10-07T10:28:10.326Z,8.85
2022-10-07T10:33:31.707Z,11.23
2022-10-07T10:38:40.842Z,12.27
2022-10-07T10:44:13.083Z,9.85
2022-10-07T10:49:34.331Z,12.52
2022-10-07T10:54:54.785Z,10.35
2022-10-07T11:00:13.133Z,11.02
2022-10-07T11:05:36.715Z,9.30
2022-10-07T11:10:48.394Z,9.57
2022-10-07T11:16:00.294Z,9.20
2022-10-07T11:21:07.268Z,12.27
2022-10-07T11:26:24.443Z,11.75
2022-10-07T11:31:43.814Z,11.75
2022-10-07T11:37:03.758Z,11.32
2022-10-07T11:42:21.736Z,12.15
2022-10-07T11:47:30.357Z,12.73
2022-10-07T11:52:38.297Z,10.57
2022-10-07T11:57:43.874Z,9.17
2022-10-07T12:02:46.693Z,9.68
2022-10-07T12:08:00.488Z,11.05
2022-10-07T12:13:21.814Z,9.90
2022-10-07T12:18:26.200Z,11.52
2022-10-07T12:23:28.255Z,12.52
2022-10-07T12:28:48.717Z,8.13
2022-10-07T12:34:09.869Z,10.73
2022-10-07T12:39:11.720Z,9.70
2022-10-07T12:44:38.502Z,12.23
2022-10-07T12:49:49.899Z,9.68
2022-10-07T12:54:53.915Z,10.40
2022-10-07T13:00:14.801Z,8.10
2022-10-07T13:05:37.609Z,8.63
2022-10-07T13:11:08.364Z,10.63
2022-10-07T13:16:27.127Z,11.43
2022-10-07T13:26:42.718Z,7.55
2022-10-07T13:32:03.159Z,7.93
2022-10-07T13:37:34.193Z,8.90
2022-10-07T13:42:35.691Z,9.20
2022-10-07T13:47:37.497Z,8.65
2022-10-07T13:52:44.334Z,9.95
2022-10-07T13:57:46.415Z,13.30
2022-10-07T14:02:51.424Z,9.93
2022-10-07T14:08:00.741Z,11.55
2022-10-07T14:13:07.240Z,16.05
2022-10-07T14:18:11.244Z,18.50
2022-10-07T14:23:31.131Z,13.23
2022-10-07T14:28:37.465Z,14.98
2022-10-07T14:34:08.193Z,14.23
2022-10-07T14:39:30.641Z,11.68
2022-10-07T14:44:32.217Z,11.88
2022-10-07T14:49:33.645Z,12.18
2022-10-07T14:54:35.143Z,14.90
2022-10-07T14:59:37.854Z,14.93
2022-10-07T15:04:40.486Z,13.48
2022-10-07T15:09:43.557Z,13.68
2022-10-07T15:14:45.039Z,15.70
2022-10-07T15:19:46.439Z,11.35
2022-10-07T15:24:47.936Z,12.13
2022-10-07T15:29:53.064Z,12.07
2022-10-07T15:34:55.191Z,14.35
2022-10-07T15:39:56.660Z,15.27
2022-10-07T15:44:58.124Z,13.98
2022-10-07T15:49:59.615Z,16.85
2022-10-07T15:55:07.872Z,15.65
2022-10-07T16:00:10.643Z,14.02
2022-10-07T16:05:13.017Z,16.98
2022-10-07T16:10:14.626Z,15.18
2022-10-07T16:15:16.621Z,23.20
2022-10-07T16:20:18.559Z,17.58
2022-10-07T16:25:19.977Z,17.58
2022-10-07T16:30:39.923Z,20.13
2022-10-07T16:35:42.256Z,25.05
2022-10-07T16:40:52.589Z,25.50
2022-10-07T16:45:53.985Z,22.15
2022-10-07T16:50:55.639Z,19.92
2022-10-07T16:56:01.189Z,23.50
2022-10-07T17:01:04.244Z,21.08
2022-10-07T17:06:07.968Z,25.33
2022-10-07T17:11:11.121Z,22.00
2022-10-07T17:16:13.603Z,27.83
2022-10-07T17:21:15.071Z,27.23
2022-10-07T17:26:17.249Z,37.90
2022-10-07T17:31:18.766Z,34.72
2022-10-07T17:36:21.251Z,47.08
2022-10-07T17:41:27.002Z,23.65
2022-10-07T17:46:32.456Z,26.70
2022-10-07T17:51:34.746Z,104.80
2022-10-07T17:56:36.297Z,32.40
2022-10-07T18:01:37.927Z,28.95
2022-10-07T18:06:39.691Z,31.52
2022-10-07T18:11:59.443Z,33.50
2022-10-07T18:17:01.538Z,35.88
2022-10-07T18:22:03.049Z,36.63
2022-10-07T18:27:04.474Z,33.75
2022-10-07T18:32:07.319Z,33.75
2022-10-07T18:37:08.859Z,34.33
2022-10-07T18:42:10.297Z,41.30
2022-10-07T18:47:11.786Z,51.35
2022-10-07T18:52:13.308Z,40.72
2022-10-07T18:57:14.733Z,49.75
2022-10-07T19:02:16.382Z,40.15
2022-10-07T19:07:17.808Z,34.63
2022-10-07T19:12:37.729Z,33.70
2022-10-07T19:17:39.119Z,27.88
2022-10-07T19:22:40.557Z,26.20
2022-10-07T19:27:41.963Z,25.05
2022-10-07T19:32:44.886Z,29.67
2022-10-07T19:37:46.596Z,23.85
2022-10-07T19:42:48.234Z,24.63
2022-10-07T19:47:49.669Z,23.48
2022-10-07T19:52:53.326Z,19.80
2022-10-07T19:57:59.655Z,24.85
2022-10-07T20:03:01.088Z,21.33
2022-10-07T20:08:05.687Z,24.40
2022-10-07T20:13:10.100Z,18.85
2022-10-07T20:18:11.583Z,18.85
2022-10-07T20:23:13.625Z,18.27
2022-10-07T20:28:15.150Z,18.48
2022-10-07T20:33:16.550Z,20.77
2022-10-07T20:38:17.948Z,20.77
2022-10-07T20:43:19.389Z,21.30
2022-10-07T20:48:20.972Z,21.02
2022-10-07T20:53:23.477Z,26.48
2022-10-07T20:58:24.877Z,21.83
2022-10-07T21:03:27.376Z,21.38
2022-10-07T21:08:31.223Z,19.40
2022-10-07T21:13:32.691Z,20.33
2022-10-07T21:18:34.612Z,18.13
2022-10-07T21:23:36.168Z,19.88
2022-10-07T21:28:38.694Z,13.90
2022-10-07T21:33:40.231Z,12.70
2022-10-07T21:38:41.801Z,15.73
2022-10-07T21:43:47.993Z,13.45
2022-10-07T21:48:49.649Z,16.23
2022-10-07T21:53:52.375Z,18.27
2022-10-07T21:58:54.208Z,13.65
2022-10-07T22:03:57.397Z,13.32
2022-10-07T22:08:58.796Z,11.80
2022-10-07T22:14:00.213Z,12.32
2022-10-07T22:19:01.627Z,11.70
2022-10-07T22:24:05.116Z,13.18
2022-10-07T22:29:09.491Z,13.20
2022-10-07T22:34:34.015Z,10.38
2022-10-07T22:39:35.472Z,12.73
2022-10-07T22:44:36.963Z,15.63
2022-10-07T22:49:38.354Z,11.75
2022-10-07T22:54:40.312Z,12.23
2022-10-07T22:59:41.739Z,10.75
2022-10-07T23:04:43.164Z,12.48
2022-10-07T23:09:44.572Z,11.48
2022-10-07T23:14:45.978Z,12.80
2022-10-07T23:19:47.458Z,11.60
2022-10-07T23:24:48.891Z,18.48
2022-10-07T23:29:50.296Z,11.05
2022-10-07T23:34:51.683Z,11.57
2022-10-07T23:39:53.085Z,9.55
2022-10-07T23:44:54.493Z,11.77
2022-10-07T23:49:55.945Z,16.15
2022-10-07T23:54:57.384Z,10.50
2022-10-07T23:59:58.805Z,8.90
